createdAt,value
2022-09-03T00:00:07.013Z,16.40
2022-09-03T00:01:16.586Z,16.39
2022-09-03T00:02:26.716Z,16.39
2022-09-03T00:03:33.562Z,16.39
2022-09-03T00:04:43.683Z,16.41
2022-09-03T00:05:59.307Z,16.42
2022-09-03T00:07:05.977Z,16.43
2022-09-03T00:08:22.613Z,16.45
2022-09-03T00:09:29.174Z,16.45
2022-09-03T00:10:55.026Z,16.47
2022-09-03T00:12:07.828Z,16.47
2022-09-03T00:13:17.446Z,16.46
2022-09-03T00:14:27.169Z,16.45
2022-09-03T00:15:33.246Z,16.44
2022-09-03T00:16:54.920Z,16.44
2022-09-03T00:18:04.314Z,16.44
2022-09-03T00:19:07.560Z,16.45
2022-09-03T00:20:21.141Z,16.44
2022-09-03T00:21:43.222Z,16.43
2022-09-03T00:22:49.824Z,16.42
2022-09-03T00:23:54.136Z,16.40
2022-09-03T00:25:00.571Z,16.39
2022-09-03T00:26:13.568Z,16.38
2022-09-03T00:27:20.343Z,16.37
2022-09-03T00:28:35.857Z,16.36
2022-09-03T00:29:48.437Z,16.36
2022-09-03T00:30:56.709Z,16.35
2022-09-03T00:32:06.413Z,16.35
2022-09-03T00:33:13.161Z,16.35
2022-09-03T00:34:26.535Z,16.34
2022-09-03T00:35:38.740Z,16.34
2022-09-03T00:36:43.658Z,16.32
2022-09-03T00:37:47.353Z,16.32
2022-09-03T00:38:50.982Z,16.29
2022-09-03T00:39:55.647Z,16.27
2022-09-03T00:41:06.278Z,16.27
2022-09-03T00:42:34.192Z,16.26
2022-09-03T00:43:57.447Z,16.25
2022-09-03T00:45:28.332Z,16.23
2022-09-03T00:46:40.866Z,16.21
2022-09-03T00:48:07.321Z,16.17
2022-09-03T00:49:16.906Z,16.13
2022-09-03T00:50:35.718Z,16.08
2022-09-03T00:51:51.532Z,16.06
2022-09-03T00:53:04.323Z,16.05
2022-09-03T00:54:29.369Z,16.04
2022-09-03T00:55:46.440Z,16.04
2022-09-03T00:57:14.174Z,16.01
2022-09-03T00:58:23.733Z,16.01
2022-09-03T00:59:59.029Z,16.00
2022-09-03T01:01:05.892Z,15.99
2022-09-03T01:02:31.326Z,15.99
2022-09-03T01:03:44.723Z,15.99
2022-09-03T01:05:00.364Z,15.98
2022-09-03T01:06:07.343Z,15.98
2022-09-03T01:07:33.549Z,15.95
2022-09-03T01:09:01.040Z,15.95
2022-09-03T01:10:16.720Z,15.94
2022-09-03T01:11:59.772Z,15.92
2022-09-03T01:13:09.651Z,15.91
2022-09-03T01:14:40.178Z,15.87
2022-09-03T01:15:56.132Z,15.85
2022-09-03T01:17:21.021Z,15.82
2022-09-03T01:18:36.687Z,15.80
2022-09-03T01:19:50.919Z,15.78
2022-09-03T01:21:07.002Z,15.75
2022-09-03T01:22:48.324Z,15.74
2022-09-03T01:24:23.191Z,15.73
2022-09-03T01:25:54.242Z,15.71
2022-09-03T01:27:07.418Z,15.69
2022-09-03T01:28:26.827Z,15.67
2022-09-03T01:29:52.891Z,15.65
2022-09-03T01:31:02.934Z,15.64
2022-09-03T01:32:13.530Z,15.65
2022-09-03T01:33:43.972Z,15.65
2022-09-03T01:35:11.970Z,15.65
2022-09-03T01:36:21.843Z,15.64
2022-09-03T01:37:47.944Z,15.65
2022-09-03T01:38:54.677Z,15.64
2022-09-03T01:40:10.311Z,15.65
2022-09-03T01:42:02.150Z,15.66
2022-09-03T01:43:38.520Z,15.67
2022-09-03T01:45:14.145Z,15.66
2022-09-03T01:46:24.229Z,15.65
2022-09-03T01:47:52.025Z,15.63
2022-09-03T01:49:20.176Z,15.64
2022-09-03T01:50:46.892Z,15.62
2022-09-03T01:52:03.365Z,15.61
2022-09-03T01:53:38.652Z,15.60
2022-09-03T01:54:45.316Z,15.61
2022-09-03T01:56:09.951Z,15.59
2022-09-03T01:57:39.275Z,15.59
2022-09-03T01:58:58.056Z,15.60
2022-09-03T02:00:08.064Z,15.58
2022-09-03T02:01:20.677Z,15.58
2022-09-03T02:02:26.097Z,15.57
2022-09-03T02:03:40.752Z,15.57
2022-09-03T02:05:08.779Z,15.57
2022-09-03T02:06:12.377Z,15.56
2022-09-03T02:07:15.465Z,15.57
2022-09-03T02:08:20.045Z,15.57
2022-09-03T02:09:23.942Z,15.57
2022-09-03T02:10:38.798Z,15.56
2022-09-03T02:11:43.286Z,15.57
2022-09-03T02:12:52.940Z,15.57
2022-09-03T02:13:58.918Z,15.56
2022-09-03T02:15:04.370Z,15.57
2022-09-03T02:16:14.101Z,15.56
2022-09-03T02:17:17.769Z,15.56
2022-09-03T02:18:24.767Z,15.56
2022-09-03T02:19:30.167Z,15.56
2022-09-03T02:20:34.076Z,15.56
2022-09-03T02:21:40.362Z,15.56
2022-09-03T02:22:43.457Z,15.55
2022-09-03T02:23:47.925Z,15.55
2022-09-03T02:24:51.617Z,15.53
2022-09-03T02:26:01.091Z,15.53
2022-09-03T02:27:04.303Z,15.53
2022-09-03T02:28:17.066Z,15.53
2022-09-03T02:29:16.363Z,15.52
2022-09-03T02:30:19.757Z,15.52
2022-09-03T02:31:23.004Z,15.51
2022-09-03T02:32:26.415Z,15.51
2022-09-03T02:33:32.104Z,15.51
2022-09-03T02:34:35.208Z,15.50
2022-09-03T02:35:40.191Z,15.49
2022-09-03T02:36:45.987Z,15.48
2022-09-03T02:37:49.591Z,15.47
2022-09-03T02:38:52.929Z,15.44
2022-09-03T02:39:56.004Z,15.41
2022-09-03T02:40:59.248Z,15.39
2022-09-03T02:42:02.415Z,15.37
2022-09-03T02:43:09.090Z,15.35
2022-09-03T02:44:23.503Z,15.33
2022-09-03T02:45:28.994Z,15.31
2022-09-03T02:46:56.865Z,15.30
2022-09-03T02:48:00.390Z,15.29
2022-09-03T02:49:03.684Z,15.28
2022-09-03T02:50:07.261Z,15.26
2022-09-03T02:51:14.295Z,15.24
2022-09-03T02:52:16.268Z,15.24
2022-09-03T02:53:19.720Z,15.24
2022-09-03T02:54:22.809Z,15.23
2022-09-03T02:55:25.914Z,15.23
2022-09-03T02:56:28.996Z,15.23
2022-09-03T02:57:32.081Z,15.21
2022-09-03T02:58:35.202Z,15.20
2022-09-03T02:59:39.303Z,15.18
2022-09-03T03:00:42.397Z,15.18
2022-09-03T03:01:46.662Z,15.17
2022-09-03T03:02:51.997Z,15.18
2022-09-03T03:03:55.162Z,15.16
2022-09-03T03:04:58.455Z,15.16
2022-09-03T03:06:04.395Z,15.16
2022-09-03T03:07:07.613Z,15.16
2022-09-03T03:08:12.985Z,15.16
2022-09-03T03:09:16.749Z,15.15
2022-09-03T03:10:21.327Z,15.14
2022-09-03T03:11:25.746Z,15.15
2022-09-03T03:12:30.271Z,15.16
2022-09-03T03:13:33.653Z,15.15
2022-09-03T03:14:37.367Z,15.16
2022-09-03T03:15:42.087Z,15.17
2022-09-03T03:16:45.330Z,15.17
2022-09-03T03:17:48.635Z,15.18
2022-09-03T03:18:52.248Z,15.17
2022-09-03T03:19:55.341Z,15.18
2022-09-03T03:21:04.256Z,15.18
2022-09-03T03:22:07.444Z,15.19
2022-09-03T03:23:10.645Z,15.19
2022-09-03T03:24:13.763Z,15.19
2022-09-03T03:25:16.789Z,15.20
2022-09-03T03:26:22.282Z,15.21
2022-09-03T03:27:25.466Z,15.20
2022-09-03T03:28:28.451Z,15.21
2022-09-03T03:29:31.544Z,15.20
2022-09-03T03:30:38.363Z,15.21
2022-09-03T03:31:41.564Z,15.21
2022-09-03T03:32:44.656Z,15.22
2022-09-03T03:33:52.013Z,15.22
2022-09-03T03:34:55.255Z,15.22
2022-09-03T03:35:58.262Z,15.22
2022-09-03T03:37:01.430Z,15.21
2022-09-03T03:38:04.631Z,15.21
2022-09-03T03:39:08.085Z,15.21
2022-09-03T03:40:13.773Z,15.23
2022-09-03T03:41:22.530Z,15.22
2022-09-03T03:42:25.519Z,15.24
2022-09-03T03:43:28.749Z,15.24
2022-09-03T03:44:31.826Z,15.25
2022-09-03T03:45:34.941Z,15.27
2022-09-03T03:46:41.406Z,15.28
2022-09-03T03:47:44.399Z,15.29
2022-09-03T03:48:48.590Z,15.30
2022-09-03T03:49:51.890Z,15.31
2022-09-03T03:50:55.069Z,15.33
2022-09-03T03:51:58.147Z,15.35
2022-09-03T03:53:01.713Z,15.35
2022-09-03T03:54:05.801Z,15.36
2022-09-03T03:55:09.153Z,15.37
2022-09-03T03:56:14.744Z,15.38
2022-09-03T03:57:20.506Z,15.39
2022-09-03T03:58:23.648Z,15.40
2022-09-03T03:59:26.808Z,15.41
2022-09-03T04:00:30.326Z,15.41
2022-09-03T04:01:33.555Z,15.42
2022-09-03T04:02:39.176Z,15.43
2022-09-03T04:03:42.182Z,15.45
2022-09-03T04:04:45.266Z,15.47
2022-09-03T04:05:56.643Z,15.47
2022-09-03T04:06:59.863Z,15.48
2022-09-03T04:08:03.584Z,15.49
2022-09-03T04:09:06.671Z,15.50
2022-09-03T04:10:10.132Z,15.49
2022-09-03T04:11:16.507Z,15.50
2022-09-03T04:12:19.608Z,15.51
2022-09-03T04:13:22.680Z,15.51
2022-09-03T04:14:26.852Z,15.52
2022-09-03T04:15:29.947Z,15.52
2022-09-03T04:16:33.416Z,15.52
2022-09-03T04:17:36.633Z,15.53
2022-09-03T04:18:40.070Z,15.55
2022-09-03T04:19:43.213Z,15.55
2022-09-03T04:20:46.298Z,15.57
2022-09-03T04:21:49.383Z,15.58
2022-09-03T04:22:52.471Z,15.60
2022-09-03T04:23:56.261Z,15.61
2022-09-03T04:24:59.471Z,15.61
2022-09-03T04:26:03.082Z,15.62
2022-09-03T04:27:08.405Z,15.64
2022-09-03T04:28:12.129Z,15.65
2022-09-03T04:29:16.148Z,15.67
2022-09-03T04:30:20.858Z,15.68
2022-09-03T04:31:24.170Z,15.69
2022-09-03T04:32:46.049Z,15.71
2022-09-03T04:33:50.705Z,15.73
2022-09-03T04:34:53.698Z,15.74
2022-09-03T04:36:17.182Z,15.75
2022-09-03T04:37:20.394Z,15.75
2022-09-03T04:38:23.815Z,15.74
2022-09-03T04:39:27.309Z,15.75
2022-09-03T04:40:30.823Z,15.75
2022-09-03T04:41:33.924Z,15.77
2022-09-03T04:42:37.007Z,15.79
2022-09-03T04:43:42.791Z,15.80
2022-09-03T04:44:45.926Z,15.81
2022-09-03T04:45:48.949Z,15.84
2022-09-03T04:46:52.732Z,15.86
2022-09-03T04:48:00.008Z,15.89
2022-09-03T04:49:03.344Z,15.91
2022-09-03T04:50:07.519Z,15.93
2022-09-03T04:51:14.365Z,15.94
2022-09-03T04:52:17.500Z,15.96
2022-09-03T04:53:21.107Z,16.00
2022-09-03T04:54:24.224Z,16.00
2022-09-03T04:55:34.629Z,16.02
2022-09-03T04:56:40.775Z,16.04
2022-09-03T04:57:44.239Z,16.04
2022-09-03T04:58:50.985Z,16.05
2022-09-03T04:59:53.484Z,16.08
2022-09-03T05:00:57.197Z,16.10
2022-09-03T05:02:00.465Z,16.12
2022-09-03T05:03:04.619Z,16.14
2022-09-03T05:04:08.222Z,16.15
2022-09-03T05:05:11.425Z,16.17
2022-09-03T05:06:16.829Z,16.18
2022-09-03T05:07:20.532Z,16.19
2022-09-03T05:08:26.013Z,16.21
2022-09-03T05:09:29.142Z,16.24
2022-09-03T05:10:33.430Z,16.25
2022-09-03T05:11:36.538Z,16.28
2022-09-03T05:12:39.667Z,16.29
2022-09-03T05:13:42.941Z,16.31
2022-09-03T05:14:46.009Z,16.32
2022-09-03T05:15:49.110Z,16.33
2022-09-03T05:16:52.955Z,16.34
2022-09-03T05:17:57.818Z,16.35
2022-09-03T05:19:01.497Z,16.35
2022-09-03T05:20:08.730Z,16.34
2022-09-03T05:21:14.583Z,16.33
2022-09-03T05:22:19.528Z,16.32
2022-09-03T05:23:22.694Z,16.31
2022-09-03T05:24:25.845Z,16.30
2022-09-03T05:25:30.963Z,16.28
2022-09-03T05:26:37.188Z,16.27
2022-09-03T05:27:40.323Z,16.26
2022-09-03T05:28:44.648Z,16.27
2022-09-03T05:29:48.746Z,16.30
2022-09-03T05:31:00.493Z,16.30
2022-09-03T05:32:03.787Z,16.32
2022-09-03T05:33:06.966Z,16.33
2022-09-03T05:34:16.605Z,16.35
2022-09-03T05:35:16.268Z,16.37
2022-09-03T05:36:23.175Z,16.39
2022-09-03T05:37:26.288Z,16.42
2022-09-03T05:38:29.494Z,16.43
2022-09-03T05:39:32.614Z,16.46
2022-09-03T05:40:36.364Z,16.51
2022-09-03T05:41:39.799Z,16.51
2022-09-03T05:42:43.293Z,16.53
2022-09-03T05:43:53.402Z,16.58
2022-09-03T05:44:56.947Z,16.60
2022-09-03T05:46:18.031Z,16.64
2022-09-03T05:47:21.024Z,16.65
2022-09-03T05:48:24.245Z,16.66
2022-09-03T05:49:27.415Z,16.68
2022-09-03T05:50:31.409Z,16.69
2022-09-03T05:51:36.354Z,16.70
2022-09-03T05:52:39.459Z,16.72
2022-09-03T05:53:43.941Z,16.73
2022-09-03T05:54:47.449Z,16.75
2022-09-03T05:55:58.282Z,16.77
2022-09-03T05:57:01.832Z,16.79
2022-09-03T05:58:04.997Z,16.80
2022-09-03T05:59:09.751Z,16.81
2022-09-03T06:00:13.420Z,16.83
2022-09-03T06:01:19.550Z,16.85
2022-09-03T06:02:23.157Z,16.85
2022-09-03T06:03:28.150Z,16.87
2022-09-03T06:04:32.395Z,16.88
2022-09-03T06:05:36.404Z,16.92
2022-09-03T06:06:42.122Z,16.95
2022-09-03T06:07:47.843Z,16.97
2022-09-03T06:08:52.331Z,16.99
2022-09-03T06:09:55.741Z,17.02
2022-09-03T06:11:00.249Z,17.03
2022-09-03T06:12:03.949Z,17.05
2022-09-03T06:13:07.883Z,17.07
2022-09-03T06:14:12.849Z,17.10
2022-09-03T06:15:16.309Z,17.12
2022-09-03T06:16:30.512Z,17.14
2022-09-03T06:17:26.601Z,17.15
2022-09-03T06:18:30.409Z,17.16
2022-09-03T06:19:33.600Z,17.17
2022-09-03T06:20:37.442Z,17.18
2022-09-03T06:21:43.282Z,17.19
2022-09-03T06:22:51.775Z,17.21
2022-09-03T06:23:56.751Z,17.22
2022-09-03T06:25:01.669Z,17.25
2022-09-03T06:26:07.751Z,17.26
2022-09-03T06:27:11.274Z,17.27
2022-09-03T06:28:14.368Z,17.27
2022-09-03T06:29:18.695Z,17.28
2022-09-03T06:30:23.600Z,17.29
2022-09-03T06:31:27.486Z,17.31
2022-09-03T06:32:30.621Z,17.33
2022-09-03T06:33:35.771Z,17.36
2022-09-03T06:34:39.085Z,17.38
2022-09-03T06:35:43.249Z,17.44
2022-09-03T06:36:46.616Z,17.47
2022-09-03T06:37:51.624Z,17.49
2022-09-03T06:38:56.163Z,17.53
2022-09-03T06:39:59.397Z,17.57
2022-09-03T06:41:08.054Z,17.60
2022-09-03T06:42:11.757Z,17.63
2022-09-03T06:43:16.571Z,17.67
2022-09-03T06:44:19.544Z,17.69
2022-09-03T06:45:22.726Z,17.73
2022-09-03T06:46:26.273Z,17.77
2022-09-03T06:47:29.361Z,17.80
2022-09-03T06:48:33.960Z,17.82
2022-09-03T06:49:38.177Z,17.85
2022-09-03T06:50:42.327Z,17.87
2022-09-03T06:51:45.440Z,17.90
2022-09-03T06:52:56.885Z,17.93
2022-09-03T06:54:02.802Z,17.97
2022-09-03T06:55:06.755Z,18.01
2022-09-03T06:56:16.436Z,18.03
2022-09-03T06:57:19.878Z,18.05
2022-09-03T06:58:23.234Z,18.07
2022-09-03T06:59:26.404Z,18.08
2022-09-03T07:00:30.721Z,18.11
2022-09-03T07:01:35.536Z,18.13
2022-09-03T07:02:44.240Z,18.15
2022-09-03T07:03:48.201Z,18.19
2022-09-03T07:04:51.221Z,18.21
2022-09-03T07:05:54.423Z,18.25
2022-09-03T07:06:57.718Z,18.28
2022-09-03T07:08:00.730Z,18.30
2022-09-03T07:09:04.455Z,18.33
2022-09-03T07:10:09.775Z,18.37
2022-09-03T07:11:17.175Z,18.39
2022-09-03T07:12:20.280Z,18.43
2022-09-03T07:13:25.224Z,18.47
2022-09-03T07:14:28.330Z,18.50
2022-09-03T07:15:31.427Z,18.53
2022-09-03T07:16:36.764Z,18.56
2022-09-03T07:17:40.294Z,18.59
2022-09-03T07:18:43.936Z,18.62
2022-09-03T07:19:47.044Z,18.66
2022-09-03T07:20:50.235Z,18.71
2022-09-03T07:21:53.226Z,18.74
2022-09-03T07:22:56.808Z,18.78
2022-09-03T07:23:59.996Z,18.83
2022-09-03T07:25:03.268Z,18.86
2022-09-03T07:26:10.142Z,18.91
2022-09-03T07:27:15.189Z,18.93
2022-09-03T07:28:18.279Z,18.97
2022-09-03T07:29:21.766Z,19.02
2022-09-03T07:30:26.110Z,19.04
2022-09-03T07:31:32.976Z,19.06
2022-09-03T07:32:38.006Z,19.08
2022-09-03T07:33:41.755Z,19.09
2022-09-03T07:34:44.925Z,19.12
2022-09-03T07:35:48.630Z,19.14
2022-09-03T07:36:52.072Z,19.17
2022-09-03T07:37:55.247Z,19.18
2022-09-03T07:38:59.281Z,19.21
2022-09-03T07:40:02.973Z,19.22
2022-09-03T07:41:08.665Z,19.22
2022-09-03T07:42:11.795Z,19.23
2022-09-03T07:43:14.901Z,19.25
2022-09-03T07:44:19.021Z,19.27
2022-09-03T07:45:23.536Z,19.28
2022-09-03T07:46:27.533Z,19.29
2022-09-03T07:47:31.656Z,19.31
2022-09-03T07:48:37.446Z,19.32
2022-09-03T07:49:39.692Z,19.35
2022-09-03T07:50:43.439Z,19.37
2022-09-03T07:51:48.462Z,19.39
2022-09-03T07:52:58.467Z,19.42
2022-09-03T07:54:04.409Z,19.44
2022-09-03T07:55:09.115Z,19.46
2022-09-03T07:56:15.205Z,19.48
2022-09-03T07:57:18.318Z,19.51
2022-09-03T07:58:23.396Z,19.53
2022-09-03T07:59:26.502Z,19.55
2022-09-03T08:00:31.872Z,19.58
2022-09-03T08:01:36.593Z,19.60
2022-09-03T08:02:45.949Z,19.63
2022-09-03T08:03:49.471Z,19.63
2022-09-03T08:04:52.726Z,19.66
2022-09-03T08:05:59.526Z,19.69
2022-09-03T08:07:03.496Z,19.71
2022-09-03T08:08:07.835Z,19.72
2022-09-03T08:09:13.043Z,19.74
2022-09-03T08:10:17.193Z,19.76
2022-09-03T08:11:21.518Z,19.80
2022-09-03T08:12:24.684Z,19.82
2022-09-03T08:13:28.143Z,19.84
2022-09-03T08:14:31.179Z,19.87
2022-09-03T08:15:34.328Z,19.88
2022-09-03T08:16:41.716Z,19.92
2022-09-03T08:17:45.277Z,19.92
2022-09-03T08:18:50.183Z,19.94
2022-09-03T08:19:53.428Z,19.96
2022-09-03T08:20:59.737Z,19.96
2022-09-03T08:22:03.052Z,19.98
2022-09-03T08:23:06.333Z,19.98
2022-09-03T08:24:11.671Z,19.99
2022-09-03T08:25:14.769Z,20.01
2022-09-03T08:26:19.781Z,20.01
2022-09-03T08:27:24.709Z,20.03
2022-09-03T08:28:28.407Z,20.04
2022-09-03T08:29:31.624Z,20.04
2022-09-03T08:30:36.023Z,20.05
2022-09-03T08:31:39.321Z,20.06
2022-09-03T08:32:42.558Z,20.06
2022-09-03T08:33:48.168Z,20.09
2022-09-03T08:34:51.771Z,20.09
2022-09-03T08:35:54.853Z,20.10
2022-09-03T08:37:00.063Z,20.11
2022-09-03T08:38:04.952Z,20.12
2022-09-03T08:39:10.710Z,20.13
2022-09-03T08:40:14.921Z,20.14
2022-09-03T08:41:21.020Z,20.15
2022-09-03T08:42:45.848Z,20.16
2022-09-03T08:44:03.111Z,20.17
2022-09-03T08:45:07.929Z,20.18
2022-09-03T08:46:13.238Z,20.19
2022-09-03T08:47:35.042Z,20.19
2022-09-03T08:48:38.370Z,20.21
2022-09-03T08:51:10.865Z,20.35
2022-09-03T08:52:23.209Z,20.23
2022-09-03T08:53:51.285Z,20.24
2022-09-03T08:54:57.946Z,20.25
2022-09-03T08:56:13.474Z,20.28
2022-09-03T08:57:20.133Z,20.28
2022-09-03T08:58:29.217Z,20.30
2022-09-03T08:59:33.104Z,20.32
2022-09-03T09:01:01.706Z,20.33
2022-09-03T09:02:08.592Z,20.36
2022-09-03T09:03:15.469Z,20.37
2022-09-03T09:04:37.317Z,20.38
2022-09-03T09:06:00.646Z,20.40
2022-09-03T09:07:07.357Z,20.42
2022-09-03T09:08:20.158Z,20.43
2022-09-03T09:09:52.455Z,20.45
2022-09-03T09:11:17.169Z,20.46
2022-09-03T09:12:34.092Z,20.49
2022-09-03T09:13:44.596Z,20.49
2022-09-03T09:15:18.603Z,20.51
2022-09-03T09:16:28.682Z,20.52
2022-09-03T09:17:56.277Z,20.52
2022-09-03T09:19:06.673Z,20.54
2022-09-03T09:20:29.879Z,20.54
2022-09-03T09:21:56.016Z,20.56
2022-09-03T09:23:07.656Z,20.58
2022-09-03T09:24:25.830Z,20.58
2022-09-03T09:25:31.272Z,20.59
2022-09-03T09:26:34.622Z,20.60
2022-09-03T09:27:37.856Z,20.61
2022-09-03T09:28:43.173Z,20.64
2022-09-03T09:29:51.819Z,20.66
2022-09-03T09:30:56.966Z,20.69
2022-09-03T09:32:00.153Z,20.71
2022-09-03T09:33:03.325Z,20.72
2022-09-03T09:34:07.941Z,20.73
2022-09-03T09:35:11.711Z,20.75
2022-09-03T09:36:18.896Z,20.76
2022-09-03T09:37:22.061Z,20.77
2022-09-03T09:38:33.577Z,20.79
2022-09-03T09:39:37.284Z,20.80
2022-09-03T09:40:44.744Z,20.83
2022-09-03T09:42:01.715Z,20.84
2022-09-03T09:43:11.337Z,20.85
2022-09-03T09:44:20.465Z,20.86
2022-09-03T09:45:23.968Z,20.88
2022-09-03T09:46:31.497Z,20.90
2022-09-03T09:47:38.328Z,20.91
2022-09-03T09:48:51.165Z,20.92
2022-09-03T09:51:07.792Z,20.96
2022-09-03T09:52:15.146Z,20.98
2022-09-03T09:53:20.932Z,20.98
2022-09-03T09:54:27.564Z,21.00
2022-09-03T09:55:31.850Z,21.01
2022-09-03T09:56:36.057Z,21.02
2022-09-03T09:57:40.009Z,21.04
2022-09-03T09:58:43.223Z,21.05
2022-09-03T09:59:48.312Z,21.08
2022-09-03T10:00:56.475Z,21.10
2022-09-03T10:02:10.332Z,21.11
2022-09-03T10:03:17.204Z,21.13
2022-09-03T10:04:32.381Z,21.13
2022-09-03T10:05:33.252Z,21.15
2022-09-03T10:06:54.900Z,21.16
2022-09-03T10:08:04.287Z,21.17
2022-09-03T10:09:10.328Z,21.19
2022-09-03T10:10:20.978Z,21.19
2022-09-03T10:11:26.278Z,21.21
2022-09-03T10:12:39.955Z,21.22
2022-09-03T10:13:47.995Z,21.23
2022-09-03T10:15:00.805Z,21.24
2022-09-03T10:16:10.793Z,21.25
2022-09-03T10:17:37.196Z,21.26
2022-09-03T10:18:45.703Z,21.26
2022-09-03T10:20:25.935Z,21.27
2022-09-03T10:21:41.637Z,21.27
2022-09-03T10:22:56.944Z,21.27
2022-09-03T10:24:16.812Z,21.27
2022-09-03T10:25:21.336Z,21.27
2022-09-03T10:26:32.621Z,21.29
2022-09-03T10:27:36.822Z,21.29
2022-09-03T10:28:42.995Z,21.30
2022-09-03T10:29:46.110Z,21.31
2022-09-03T10:31:02.141Z,21.33
2022-09-03T10:32:09.894Z,21.34
2022-09-03T10:35:04.920Z,21.48
2022-09-03T10:36:14.717Z,21.39
2022-09-03T10:37:49.836Z,21.41
2022-09-03T10:38:58.419Z,21.42
2022-09-03T10:40:20.479Z,21.44
2022-09-03T10:41:33.253Z,21.45
2022-09-03T10:42:53.100Z,21.46
2022-09-03T10:44:19.232Z,21.47
2022-09-03T10:45:45.076Z,21.47
2022-09-03T10:47:00.949Z,21.48
2022-09-03T10:48:28.681Z,21.48
2022-09-03T10:49:39.480Z,21.48
2022-09-03T10:50:55.148Z,21.49
2022-09-03T10:52:04.700Z,21.50
2022-09-03T10:53:40.106Z,21.50
2022-09-03T10:54:55.767Z,21.52
2022-09-03T10:56:14.091Z,21.52
2022-09-03T10:57:26.539Z,21.52
2022-09-03T10:58:42.405Z,21.53
2022-09-03T11:00:10.244Z,21.54
2022-09-03T11:01:32.194Z,21.54
2022-09-03T11:02:50.846Z,21.56
2022-09-03T11:04:09.655Z,21.57
2022-09-03T11:05:19.401Z,21.59
2022-09-03T11:06:29.156Z,21.61
2022-09-03T11:07:38.788Z,21.61
2022-09-03T11:08:45.703Z,21.63
2022-09-03T11:09:52.970Z,21.66
2022-09-03T11:10:59.643Z,21.68
2022-09-03T11:12:16.939Z,21.69
2022-09-03T11:13:47.948Z,21.70
2022-09-03T11:14:53.315Z,21.72
2022-09-03T11:16:00.580Z,21.74
2022-09-03T11:17:14.200Z,21.72
2022-09-03T11:18:29.849Z,21.74
2022-09-03T11:19:54.510Z,21.75
2022-09-03T11:21:02.443Z,21.76
2022-09-03T11:22:08.175Z,21.75
2022-09-03T11:23:14.476Z,21.77
2022-09-03T11:24:23.150Z,21.78
2022-09-03T11:25:36.198Z,21.80
2022-09-03T11:26:44.515Z,21.81
2022-09-03T11:28:03.094Z,21.83
2022-09-03T11:29:17.057Z,21.84
2022-09-03T11:31:01.098Z,21.86
2022-09-03T11:32:11.310Z,21.87
2022-09-03T11:33:14.709Z,21.88
2022-09-03T11:34:32.123Z,21.89
2022-09-03T11:35:38.830Z,21.89
2022-09-03T11:36:47.808Z,21.92
2022-09-03T11:37:59.958Z,21.94
2022-09-03T11:39:21.333Z,21.96
2022-09-03T11:40:39.565Z,21.97
2022-09-03T11:41:42.923Z,22.00
2022-09-03T11:42:46.830Z,22.02
2022-09-03T11:43:49.961Z,22.04
2022-09-03T11:44:53.054Z,22.06
2022-09-03T11:46:09.148Z,22.08
2022-09-03T11:47:21.183Z,22.10
2022-09-03T11:48:45.195Z,22.12
2022-09-03T11:49:51.253Z,22.14
2022-09-03T11:50:55.203Z,22.16
2022-09-03T11:52:05.281Z,22.15
2022-09-03T11:53:18.313Z,22.17
2022-09-03T11:54:25.397Z,22.18
2022-09-03T11:55:37.522Z,22.19
2022-09-03T11:56:36.861Z,22.20
2022-09-03T11:57:45.003Z,22.21
2022-09-03T11:59:08.262Z,22.23
2022-09-03T12:00:17.567Z,22.24
2022-09-03T12:01:22.752Z,22.27
2022-09-03T12:02:34.274Z,22.28
2022-09-03T12:03:45.943Z,22.30
2022-09-03T12:05:05.386Z,22.32
2022-09-03T12:06:21.751Z,22.34
2022-09-03T12:08:05.427Z,22.35
2022-09-03T12:09:19.192Z,22.37
2022-09-03T12:10:33.910Z,22.37
2022-09-03T12:11:55.818Z,22.37
2022-09-03T12:13:20.760Z,22.38
2022-09-03T12:14:47.370Z,22.38
2022-09-03T12:16:19.573Z,22.38
2022-09-03T12:17:42.971Z,22.38
2022-09-03T12:18:48.791Z,22.38
2022-09-03T12:19:54.511Z,22.39
2022-09-03T12:21:01.087Z,22.39
2022-09-03T12:22:04.808Z,22.40
2022-09-03T12:23:14.669Z,22.39
2022-09-03T12:24:19.616Z,22.40
2022-09-03T12:25:22.753Z,22.41
2022-09-03T12:26:27.146Z,22.42
2022-09-03T12:27:32.833Z,22.43
2022-09-03T12:28:38.244Z,22.43
2022-09-03T12:29:59.538Z,22.44
2022-09-03T12:31:10.576Z,22.45
2022-09-03T12:32:15.538Z,22.46
2022-09-03T12:33:20.354Z,22.48
2022-09-03T12:34:25.267Z,22.49
2022-09-03T12:36:41.222Z,22.52
2022-09-03T12:39:10.930Z,22.59
2022-09-03T12:40:05.673Z,22.62
2022-09-03T12:42:09.695Z,22.70
2022-09-03T12:48:17.530Z,22.91
2022-09-03T12:49:36.726Z,22.95
2022-09-03T12:50:27.154Z,22.97
2022-09-03T12:51:58.170Z,23.00
2022-09-03T12:52:54.026Z,23.01
2022-09-03T12:53:57.561Z,23.04
2022-09-03T12:55:07.281Z,23.04
2022-09-03T12:56:11.102Z,23.04
2022-09-03T12:57:17.811Z,23.03
2022-09-03T12:58:27.866Z,23.03
2022-09-03T12:59:34.574Z,23.02
2022-09-03T13:00:42.064Z,23.01
2022-09-03T13:01:48.940Z,23.00
2022-09-03T13:03:16.998Z,22.99
2022-09-03T13:04:24.227Z,22.98
2022-09-03T13:05:38.617Z,22.95
2022-09-03T13:06:57.136Z,22.92
2022-09-03T13:08:04.667Z,22.90
2022-09-03T13:09:09.536Z,22.86
2022-09-03T13:10:20.070Z,22.83
2022-09-03T13:11:25.171Z,22.82
2022-09-03T13:12:34.906Z,22.79
2022-09-03T13:13:38.859Z,22.78
2022-09-03T13:14:48.139Z,22.77
2022-09-03T13:16:28.391Z,22.75
2022-09-03T13:17:50.155Z,22.74
2022-09-03T13:19:31.484Z,22.72
2022-09-03T13:20:41.581Z,22.70
2022-09-03T13:22:08.075Z,22.68
2022-09-03T13:23:23.404Z,22.66
2022-09-03T13:24:42.309Z,22.65
2022-09-03T13:26:05.300Z,22.63
2022-09-03T13:27:09.808Z,22.63
2022-09-03T13:28:38.103Z,22.63
2022-09-03T13:30:02.324Z,22.63
2022-09-03T13:31:28.622Z,22.63
2022-09-03T13:32:57.746Z,22.63
2022-09-03T13:34:09.003Z,22.62
2022-09-03T13:35:32.306Z,22.61
2022-09-03T13:38:24.289Z,22.74
2022-09-03T13:39:37.257Z,22.64
2022-09-03T13:41:04.307Z,22.67
2022-09-03T13:42:21.606Z,22.70
2022-09-03T13:43:34.468Z,22.74
2022-09-03T13:44:47.808Z,22.79
2022-09-03T13:45:57.314Z,22.82
2022-09-03T13:47:05.949Z,22.86
2022-09-03T13:48:29.285Z,22.91
2022-09-03T13:50:06.451Z,22.95
2022-09-03T13:51:29.255Z,22.99
2022-09-03T13:52:42.452Z,23.03
2022-09-03T13:53:49.925Z,23.06
2022-09-03T13:54:56.579Z,23.09
2022-09-03T13:56:09.491Z,23.11
2022-09-03T13:57:34.292Z,23.12
2022-09-03T13:58:47.663Z,23.14
2022-09-03T14:00:09.950Z,23.15
2022-09-03T14:01:28.112Z,23.17
2022-09-03T14:03:00.399Z,23.20
2022-09-03T14:04:03.830Z,23.23
2022-09-03T14:05:19.555Z,23.28
2022-09-03T14:06:45.837Z,23.30
2022-09-03T14:07:58.436Z,23.33
2022-09-03T14:09:22.129Z,23.34
2022-09-03T14:10:45.359Z,23.37
2022-09-03T14:12:06.993Z,23.36
2022-09-03T14:13:41.350Z,23.35
2022-09-03T14:14:56.848Z,23.34
2022-09-03T14:16:12.741Z,23.32
2022-09-03T14:17:46.715Z,23.29
2022-09-03T14:19:17.276Z,23.27
2022-09-03T14:20:30.059Z,23.23
2022-09-03T14:21:45.868Z,23.20
2022-09-03T14:22:52.542Z,23.17
2022-09-03T14:24:05.183Z,23.16
2022-09-03T14:25:17.865Z,23.14
2022-09-03T14:26:39.639Z,23.12
2022-09-03T14:27:41.190Z,23.11
2022-09-03T14:28:50.733Z,23.11
2022-09-03T14:30:03.080Z,23.09
2022-09-03T14:31:30.352Z,23.08
2022-09-03T14:32:41.458Z,23.07
2022-09-03T14:33:57.518Z,23.07
2022-09-03T14:35:07.221Z,23.05
2022-09-03T14:36:17.164Z,23.05
2022-09-03T14:37:57.294Z,23.04
2022-09-03T14:39:13.137Z,23.04
2022-09-03T14:40:23.485Z,23.02
2022-09-03T14:41:45.258Z,23.02
2022-09-03T14:43:08.699Z,23.00
2022-09-03T14:44:24.778Z,22.99
2022-09-03T14:45:48.657Z,22.97
2022-09-03T14:47:07.623Z,22.96
2022-09-03T14:48:46.233Z,22.94
2022-09-03T14:49:55.593Z,22.92
2022-09-03T14:51:23.652Z,22.88
2022-09-03T14:53:02.341Z,22.86
2022-09-03T14:54:14.711Z,22.82
2022-09-03T14:55:22.769Z,22.79
2022-09-03T14:56:38.317Z,22.78
2022-09-03T14:57:50.557Z,22.76
2022-09-03T14:59:00.101Z,22.74
2022-09-03T15:00:18.427Z,22.74
2022-09-03T15:01:24.514Z,22.71
2022-09-03T15:02:37.659Z,22.70
2022-09-03T15:03:54.483Z,22.68
2022-09-03T15:05:20.915Z,22.67
2022-09-03T15:06:42.519Z,22.66
2022-09-03T15:08:22.922Z,22.63
2022-09-03T15:09:29.583Z,22.61
2022-09-03T15:11:00.537Z,22.58
2022-09-03T15:12:07.164Z,22.55
2022-09-03T15:13:29.013Z,22.52
2022-09-03T15:14:53.697Z,22.51